sensor_id;sensor_type;location;lat;lon;timestamp;P1;durP1;ratioP1;P2;durP2;ratioP2
11691;SDS011;33659;42.672;23.354;2022-09-12T00:00:23;4.10;;;3.47;;
11691;SDS011;33659;42.672;23.354;2022-09-12T00:02:52;3.63;;;3.33;;
11691;SDS011;33659;42.672;23.354;2022-09-12T00:05:19;4.13;;;3.25;;
11691;SDS011;33659;42.672;23.354;2022-09-12T00:07:46;5.10;;;3.33;;
11691;SDS011;33659;42.672;23.354;2022-09-12T00:10:13;3.45;;;3.15;;
11691;SDS011;33659;42.672;23.354;2022-09-12T00:12:40;4.55;;;3.55;;
11691;SDS011;33659;42.672;23.354;2022-09-12T00:15:07;4.43;;;3.65;;
11691;SDS011;33659;42.672;23.354;2022-09-12T00:17:34;4.28;;;3.88;;
11691;SDS011;33659;42.672;23.354;2022-09-12T00:20:03;4.07;;;3.70;;
11691;SDS011;33659;42.672;23.354;2022-09-12T00:22:32;4.43;;;3.92;;
11691;SDS011;33659;42.672;23.354;2022-09-12T00:24:58;5.03;;;4.53;;
11691;SDS011;33659;42.672;23.354;2022-09-12T00:27:25;4.57;;;4.18;;
11691;SDS011;33659;42.672;23.354;2022-09-12T00:29:54;4.07;;;3.67;;
11691;SDS011;33659;42.672;23.354;2022-09-12T00:32:21;4.38;;;3.97;;
11691;SDS011;33659;42.672;23.354;2022-09-12T00:34:47;4.35;;;3.95;;
11691;SDS011;33659;42.672;23.354;2022-09-12T00:37:15;4.07;;;3.67;;
11691;SDS011;33659;42.672;23.354;2022-09-12T00:39:42;4.95;;;3.17;;
11691;SDS011;33659;42.672;23.354;2022-09-12T00:42:09;5.15;;;3.70;;
11691;SDS011;33659;42.672;23.354;2022-09-12T00:44:44;4.35;;;3.50;;
11691;SDS011;33659;42.672;23.354;2022-09-12T00:47:21;5.60;;;3.28;;
11691;SDS011;33659;42.672;23.354;2022-09-12T00:49:51;4.38;;;3.05;;
11691;SDS011;33659;42.672;23.354;2022-09-12T00:52:24;3.42;;;3.13;;
11691;SDS011;33659;42.672;23.354;2022-09-12T00:54:55;3.80;;;3.38;;
11691;SDS011;33659;42.672;23.354;2022-09-12T00:57:27;3.38;;;3.08;;
11691;SDS011;33659;42.672;23.354;2022-09-12T00:59:58;3.90;;;3.58;;
11691;SDS011;33659;42.672;23.354;2022-09-12T01:02:31;4.65;;;3.95;;
11691;SDS011;33659;42.672;23.354;2022-09-12T01:04:58;4.93;;;3.63;;
11691;SDS011;33659;42.672;23.354;2022-09-12T01:07:27;4.07;;;3.67;;
11691;SDS011;33659;42.672;23.354;2022-09-12T01:09:54;3.90;;;3.55;;
11691;SDS011;33659;42.672;23.354;2022-09-12T01:12:21;4.20;;;3.80;;
11691;SDS011;33659;42.672;23.354;2022-09-12T01:14:47;3.70;;;3.30;;
11691;SDS011;33659;42.672;23.354;2022-09-12T01:17:14;4.38;;;3.33;;
11691;SDS011;33659;42.672;23.354;2022-09-12T01:22:59;3.50;;;3.20;;
11691;SDS011;33659;42.672;23.354;2022-09-12T01:25:54;3.38;;;3.08;;
11691;SDS011;33659;42.672;23.354;2022-09-12T01:28:35;3.45;;;3.17;;
11691;SDS011;33659;42.672;23.354;2022-09-12T01:31:20;3.53;;;3.22;;
11691;SDS011;33659;42.672;23.354;2022-09-12T01:34:00;3.38;;;3.17;;
11691;SDS011;33659;42.672;23.354;2022-09-12T01:36:37;3.45;;;3.15;;
11691;SDS011;33659;42.672;23.354;2022-09-12T01:39:13;3.72;;;3.42;;
11691;SDS011;33659;42.672;23.354;2022-09-12T01:41:48;3.17;;;2.90;;
11691;SDS011;33659;42.672;23.354;2022-09-12T01:44:22;5.03;;;2.92;;
11691;SDS011;33659;42.672;23.354;2022-09-12T01:46:57;3.55;;;2.88;;
11691;SDS011;33659;42.672;23.354;2022-09-12T01:49:28;3.20;;;2.97;;
11691;SDS011;33659;42.672;23.354;2022-09-12T01:52:02;3.70;;;2.95;;
11691;SDS011;33659;42.672;23.354;2022-09-12T01:54:34;3.15;;;2.85;;
11691;SDS011;33659;42.672;23.354;2022-09-12T01:57:07;3.60;;;2.83;;
11691;SDS011;33659;42.672;23.354;2022-09-12T01:59:39;3.33;;;3.03;;
11691;SDS011;33659;42.672;23.354;2022-09-12T02:02:11;2.85;;;2.65;;
11691;SDS011;33659;42.672;23.354;2022-09-12T02:04:43;3.13;;;2.83;;
11691;SDS011;33659;42.672;23.354;2022-09-12T02:07:17;3.50;;;3.13;;
11691;SDS011;33659;42.672;23.354;2022-09-12T02:09:48;2.70;;;2.50;;
11691;SDS011;33659;42.672;23.354;2022-09-12T02:12:21;3.88;;;2.97;;
11691;SDS011;33659;42.672;23.354;2022-09-12T02:14:52;2.83;;;2.63;;
11691;SDS011;33659;42.672;23.354;2022-09-12T02:17:24;3.30;;;3.00;;
11691;SDS011;33659;42.672;23.354;2022-09-12T02:19:52;4.05;;;3.03;;
11691;SDS011;33659;42.672;23.354;2022-09-12T02:22:23;3.25;;;3.00;;
11691;SDS011;33659;42.672;23.354;2022-09-12T02:24:53;4.93;;;3.13;;
11691;SDS011;33659;42.672;23.354;2022-09-12T02:27:23;3.30;;;3.00;;
11691;SDS011;33659;42.672;23.354;2022-09-12T02:29:53;2.95;;;2.75;;
11691;SDS011;33659;42.672;23.354;2022-09-12T02:32:24;3.30;;;3.00;;
11691;SDS011;33659;42.672;23.354;2022-09-12T02:34:56;4.57;;;2.80;;
11691;SDS011;33659;42.672;23.354;2022-09-12T02:37:31;2.95;;;2.67;;
11691;SDS011;33659;42.672;23.354;2022-09-12T02:40:09;3.58;;;2.83;;
11691;SDS011;33659;42.672;23.354;2022-09-12T02:42:35;3.33;;;2.70;;
11691;SDS011;33659;42.672;23.354;2022-09-12T02:45:03;3.40;;;3.13;;
11691;SDS011;33659;42.672;23.354;2022-09-12T02:47:33;3.20;;;2.67;;
11691;SDS011;33659;42.672;23.354;2022-09-12T02:50:05;5.10;;;2.72;;
11691;SDS011;33659;42.672;23.354;2022-09-12T02:52:33;3.03;;;2.83;;
11691;SDS011;33659;42.672;23.354;2022-09-12T02:55:00;3.05;;;2.80;;
11691;SDS011;33659;42.672;23.354;2022-09-12T02:57:30;4.75;;;2.97;;
11691;SDS011;33659;42.672;23.354;2022-09-12T02:59:57;3.13;;;2.83;;
11691;SDS011;33659;42.672;23.354;2022-09-12T03:02:28;4.70;;;2.90;;
11691;SDS011;33659;42.672;23.354;2022-09-12T03:08:01;3.60;;;2.88;;
11691;SDS011;33659;42.672;23.354;2022-09-12T03:10:57;3.03;;;2.72;;
11691;SDS011;33659;42.672;23.354;2022-09-12T03:13:36;2.92;;;2.72;;
11691;SDS011;33659;42.672;23.354;2022-09-12T03:16:12;2.92;;;2.65;;
11691;SDS011;33659;42.672;23.354;2022-09-12T03:18:49;6.85;;;2.80;;
11691;SDS011;33659;42.672;23.354;2022-09-12T03:21:22;3.83;;;3.53;;
11691;SDS011;33659;42.672;23.354;2022-09-12T03:24:03;2.88;;;2.67;;
11691;SDS011;33659;42.672;23.354;2022-09-12T03:26:37;7.00;;;3.17;;
11691;SDS011;33659;42.672;23.354;2022-09-12T03:29:07;3.55;;;3.08;;
11691;SDS011;33659;42.672;23.354;2022-09-12T03:31:36;7.57;;;3.65;;
11691;SDS011;33659;42.672;23.354;2022-09-12T03:34:14;3.55;;;3.25;;
11691;SDS011;33659;42.672;23.354;2022-09-12T03:36:40;3.58;;;3.28;;
11691;SDS011;33659;42.672;23.354;2022-09-12T03:39:07;3.45;;;3.15;;
11691;SDS011;33659;42.672;23.354;2022-09-12T03:41:34;3.42;;;3.15;;
11691;SDS011;33659;42.672;23.354;2022-09-12T03:44:00;3.25;;;2.92;;
11691;SDS011;33659;42.672;23.354;2022-09-12T03:46:27;3.58;;;3.28;;
11691;SDS011;33659;42.672;23.354;2022-09-12T03:48:54;3.33;;;3.03;;
11691;SDS011;33659;42.672;23.354;2022-09-12T03:51:22;4.95;;;3.00;;
11691;SDS011;33659;42.672;23.354;2022-09-12T03:53:49;4.60;;;3.03;;
11691;SDS011;33659;42.672;23.354;2022-09-12T03:56:16;3.30;;;3.00;;
11691;SDS011;33659;42.672;23.354;2022-09-12T03:58:43;3.58;;;2.88;;
11691;SDS011;33659;42.672;23.354;2022-09-12T04:01:11;2.83;;;2.63;;
11691;SDS011;33659;42.672;23.354;2022-09-12T04:03:39;2.60;;;2.38;;
11691;SDS011;33659;42.672;23.354;2022-09-12T04:06:06;3.55;;;3.22;;
11691;SDS011;33659;42.672;23.354;2022-09-12T04:08:34;7.50;;;3.10;;
11691;SDS011;33659;42.672;23.354;2022-09-12T04:11:03;3.53;;;2.97;;
11691;SDS011;33659;42.672;23.354;2022-09-12T04:13:30;6.07;;;3.40;;
11691;SDS011;33659;42.672;23.354;2022-09-12T04:15:56;3.80;;;3.22;;
11691;SDS011;33659;42.672;23.354;2022-09-12T04:18:24;3.20;;;2.90;;
11691;SDS011;33659;42.672;23.354;2022-09-12T04:20:51;4.70;;;2.80;;
11691;SDS011;33659;42.672;23.354;2022-09-12T04:23:18;3.70;;;3.20;;
11691;SDS011;33659;42.672;23.354;2022-09-12T04:25:53;3.42;;;3.13;;
11691;SDS011;33659;42.672;23.354;2022-09-12T04:28:20;4.47;;;2.78;;
11691;SDS011;33659;42.672;23.354;2022-09-12T04:30:46;3.45;;;3.15;;
11691;SDS011;33659;42.672;23.354;2022-09-12T04:33:13;3.42;;;3.13;;
11691;SDS011;33659;42.672;23.354;2022-09-12T04:35:40;3.55;;;3.25;;
11691;SDS011;33659;42.672;23.354;2022-09-12T04:38:07;4.07;;;3.78;;
11691;SDS011;33659;42.672;23.354;2022-09-12T04:40:33;4.95;;;3.28;;
11691;SDS011;33659;42.672;23.354;2022-09-12T04:43:02;4.60;;;3.83;;
11691;SDS011;33659;42.672;23.354;2022-09-12T04:45:28;3.50;;;3.15;;
11691;SDS011;33659;42.672;23.354;2022-09-12T04:47:55;4.30;;;3.90;;
11691;SDS011;33659;42.672;23.354;2022-09-12T04:50:22;3.70;;;3.40;;
11691;SDS011;33659;42.672;23.354;2022-09-12T04:52:49;6.72;;;3.83;;
11691;SDS011;33659;42.672;23.354;2022-09-12T04:55:16;10.43;;;3.88;;
11691;SDS011;33659;42.672;23.354;2022-09-12T04:57:43;4.40;;;4.00;;
11691;SDS011;33659;42.672;23.354;2022-09-12T05:00:11;6.10;;;3.92;;
11691;SDS011;33659;42.672;23.354;2022-09-12T05:02:39;3.97;;;3.60;;
11691;SDS011;33659;42.672;23.354;2022-09-12T05:05:06;4.30;;;3.90;;
11691;SDS011;33659;42.672;23.354;2022-09-12T05:07:34;4.25;;;3.70;;
11691;SDS011;33659;42.672;23.354;2022-09-12T05:10:01;4.25;;;3.42;;
11691;SDS011;33659;42.672;23.354;2022-09-12T05:12:28;3.78;;;3.47;;
11691;SDS011;33659;42.672;23.354;2022-09-12T05:14:56;3.70;;;3.10;;
11691;SDS011;33659;42.672;23.354;2022-09-12T05:17:24;3.05;;;2.85;;
11691;SDS011;33659;42.672;23.354;2022-09-12T05:19:51;5.03;;;3.65;;
11691;SDS011;33659;42.672;23.354;2022-09-12T05:22:17;4.00;;;3.50;;
11691;SDS011;33659;42.672;23.354;2022-09-12T05:24:44;3.95;;;3.55;;
11691;SDS011;33659;42.672;23.354;2022-09-12T05:27:12;4.20;;;3.80;;
11691;SDS011;33659;42.672;23.354;2022-09-12T05:29:39;3.88;;;3.30;;
11691;SDS011;33659;42.672;23.354;2022-09-12T05:32:07;3.72;;;3.33;;
11691;SDS011;33659;42.672;23.354;2022-09-12T05:34:35;3.50;;;3.20;;
11691;SDS011;33659;42.672;23.354;2022-09-12T05:37:02;4.22;;;3.60;;
11691;SDS011;33659;42.672;23.354;2022-09-12T05:39:29;3.78;;;3.30;;
11691;SDS011;33659;42.672;23.354;2022-09-12T05:41:56;5.72;;;3.45;;
11691;SDS011;33659;42.672;23.354;2022-09-12T05:44:22;3.90;;;3.45;;
11691;SDS011;33659;42.672;23.354;2022-09-12T05:46:49;3.75;;;3.15;;
11691;SDS011;33659;42.672;23.354;2022-09-12T05:49:17;3.72;;;3.30;;
11691;SDS011;33659;42.672;23.354;2022-09-12T05:51:46;3.90;;;3.17;;
11691;SDS011;33659;42.672;23.354;2022-09-12T05:54:15;3.72;;;3.10;;
11691;SDS011;33659;42.672;23.354;2022-09-12T05:56:43;5.93;;;3.42;;
11691;SDS011;33659;42.672;23.354;2022-09-12T05:59:11;8.77;;;3.67;;
11691;SDS011;33659;42.672;23.354;2022-09-12T06:01:40;4.63;;;3.80;;
11691;SDS011;33659;42.672;23.354;2022-09-12T06:04:07;3.80;;;3.13;;
11691;SDS011;33659;42.672;23.354;2022-09-12T06:06:35;3.45;;;3.15;;
11691;SDS011;33659;42.672;23.354;2022-09-12T06:09:04;3.60;;;3.30;;
11691;SDS011;33659;42.672;23.354;2022-09-12T06:11:31;3.80;;;3.38;;
11691;SDS011;33659;42.672;23.354;2022-09-12T06:13:59;9.10;;;3.58;;
11691;SDS011;33659;42.672;23.354;2022-09-12T06:16:27;4.60;;;3.58;;
11691;SDS011;33659;42.672;23.354;2022-09-12T06:18:56;4.15;;;3.35;;
11691;SDS011;33659;42.672;23.354;2022-09-12T06:21:24;5.80;;;3.85;;
11691;SDS011;33659;42.672;23.354;2022-09-12T06:23:52;4.07;;;3.30;;
11691;SDS011;33659;42.672;23.354;2022-09-12T06:26:21;4.60;;;3.40;;
11691;SDS011;33659;42.672;23.354;2022-09-12T06:28:50;4.18;;;3.72;;
11691;SDS011;33659;42.672;23.354;2022-09-12T06:31:19;4.05;;;3.53;;
11691;SDS011;33659;42.672;23.354;2022-09-12T06:33:47;4.07;;;3.78;;
11691;SDS011;33659;42.672;23.354;2022-09-12T06:36:17;4.00;;;3.45;;
11691;SDS011;33659;42.672;23.354;2022-09-12T06:38:45;3.90;;;3.60;;
11691;SDS011;33659;42.672;23.354;2022-09-12T06:41:13;3.38;;;3.03;;
11691;SDS011;33659;42.672;23.354;2022-09-12T06:43:41;3.95;;;3.63;;
11691;SDS011;33659;42.672;23.354;2022-09-12T06:46:08;4.70;;;3.83;;
11691;SDS011;33659;42.672;23.354;2022-09-12T06:48:37;6.13;;;3.33;;
11691;SDS011;33659;42.672;23.354;2022-09-12T06:51:05;4.60;;;3.78;;
11691;SDS011;33659;42.672;23.354;2022-09-12T06:53:33;3.60;;;3.30;;
11691;SDS011;33659;42.672;23.354;2022-09-12T06:56:01;3.67;;;3.38;;
11691;SDS011;33659;42.672;23.354;2022-09-12T06:58:31;3.90;;;3.50;;
11691;SDS011;33659;42.672;23.354;2022-09-12T07:01:04;7.07;;;4.20;;
11691;SDS011;33659;42.672;23.354;2022-09-12T07:03:32;3.63;;;3.33;;
11691;SDS011;33659;42.672;23.354;2022-09-12T07:06:03;4.00;;;3.58;;
11691;SDS011;33659;42.672;23.354;2022-09-12T07:08:31;5.47;;;4.20;;
11691;SDS011;33659;42.672;23.354;2022-09-12T07:10:58;3.80;;;3.50;;
11691;SDS011;33659;42.672;23.354;2022-09-12T07:13:26;15.07;;;3.88;;
11691;SDS011;33659;42.672;23.354;2022-09-12T07:15:53;6.03;;;3.55;;
11691;SDS011;33659;42.672;23.354;2022-09-12T07:18:22;3.83;;;3.42;;
11691;SDS011;33659;42.672;23.354;2022-09-12T07:20:48;3.95;;;3.55;;
11691;SDS011;33659;42.672;23.354;2022-09-12T07:23:15;4.53;;;4.07;;
11691;SDS011;33659;42.672;23.354;2022-09-12T07:25:42;4.68;;;4.28;;
11691;SDS011;33659;42.672;23.354;2022-09-12T07:28:08;3.90;;;3.60;;
11691;SDS011;33659;42.672;23.354;2022-09-12T07:30:35;4.15;;;3.83;;
11691;SDS011;33659;42.672;23.354;2022-09-12T07:33:03;4.07;;;3.78;;
11691;SDS011;33659;42.672;23.354;2022-09-12T07:35:32;4.72;;;3.65;;
11691;SDS011;33659;42.672;23.354;2022-09-12T07:37:59;4.45;;;3.85;;
11691;SDS011;33659;42.672;23.354;2022-09-12T07:40:26;5.18;;;3.80;;
11691;SDS011;33659;42.672;23.354;2022-09-12T07:42:53;4.35;;;3.95;;
11691;SDS011;33659;42.672;23.354;2022-09-12T07:45:20;6.85;;;3.60;;
11691;SDS011;33659;42.672;23.354;2022-09-12T07:47:46;4.60;;;4.05;;
11691;SDS011;33659;42.672;23.354;2022-09-12T07:50:13;4.70;;;4.30;;
11691;SDS011;33659;42.672;23.354;2022-09-12T07:52:41;4.78;;;4.28;;
11691;SDS011;33659;42.672;23.354;2022-09-12T07:55:08;4.15;;;3.75;;
11691;SDS011;33659;42.672;23.354;2022-09-12T07:57:35;5.53;;;4.10;;
11691;SDS011;33659;42.672;23.354;2022-09-12T08:00:02;4.78;;;4.35;;
11691;SDS011;33659;42.672;23.354;2022-09-12T08:02:30;4.28;;;3.92;;
11691;SDS011;33659;42.672;23.354;2022-09-12T08:04:56;4.88;;;4.22;;
11691;SDS011;33659;42.672;23.354;2022-09-12T08:07:23;4.90;;;4.15;;
11691;SDS011;33659;42.672;23.354;2022-09-12T08:09:51;4.00;;;3.70;;
11691;SDS011;33659;42.672;23.354;2022-09-12T08:12:18;4.40;;;4.00;;
11691;SDS011;33659;42.672;23.354;2022-09-12T08:14:45;4.28;;;3.88;;
11691;SDS011;33659;42.672;23.354;2022-09-12T08:17:12;3.60;;;3.25;;
11691;SDS011;33659;42.672;23.354;2022-09-12T08:19:39;3.60;;;3.30;;
11691;SDS011;33659;42.672;23.354;2022-09-12T08:22:06;3.70;;;3.40;;
11691;SDS011;33659;42.672;23.354;2022-09-12T08:24:32;3.85;;;3.40;;
11691;SDS011;33659;42.672;23.354;2022-09-12T08:27:00;4.10;;;3.70;;
11691;SDS011;33659;42.672;23.354;2022-09-12T08:29:27;3.50;;;3.20;;
11691;SDS011;33659;42.672;23.354;2022-09-12T08:31:54;3.35;;;3.15;;
11691;SDS011;33659;42.672;23.354;2022-09-12T08:34:20;3.90;;;3.60;;
11691;SDS011;33659;42.672;23.354;2022-09-12T08:36:48;3.70;;;3.40;;
11691;SDS011;33659;42.672;23.354;2022-09-12T08:39:18;3.33;;;3.00;;
11691;SDS011;33659;42.672;23.354;2022-09-12T08:41:46;3.80;;;3.50;;
11691;SDS011;33659;42.672;23.354;2022-09-12T08:44:25;3.88;;;3.42;;
11691;SDS011;33659;42.672;23.354;2022-09-12T08:47:03;3.40;;;3.10;;
11691;SDS011;33659;42.672;23.354;2022-09-12T08:49:38;3.55;;;3.13;;
11691;SDS011;33659;42.672;23.354;2022-09-12T08:52:14;3.20;;;3.00;;
11691;SDS011;33659;42.672;23.354;2022-09-12T08:54:47;2.78;;;2.58;;
11691;SDS011;33659;42.672;23.354;2022-09-12T08:57:14;3.42;;;2.80;;
11691;SDS011;33659;42.672;23.354;2022-09-12T08:59:44;3.30;;;3.00;;
11691;SDS011;33659;42.672;23.354;2022-09-12T09:02:23;3.08;;;2.88;;
11691;SDS011;33659;42.672;23.354;2022-09-12T09:05:06;3.17;;;2.83;;
11691;SDS011;33659;42.672;23.354;2022-09-12T09:10:52;3.58;;;3.28;;
11691;SDS011;33659;42.672;23.354;2022-09-12T09:13:31;3.88;;;3.45;;
11691;SDS011;33659;42.672;23.354;2022-09-12T09:16:29;3.28;;;3.03;;
11691;SDS011;33659;42.672;23.354;2022-09-12T09:19:00;3.53;;;3.33;;
11691;SDS011;33659;42.672;23.354;2022-09-12T09:21:31;3.85;;;3.45;;
11691;SDS011;33659;42.672;23.354;2022-09-12T09:24:05;4.05;;;3.75;;
11691;SDS011;33659;42.672;23.354;2022-09-12T09:26:38;4.80;;;3.47;;
11691;SDS011;33659;42.672;23.354;2022-09-12T09:29:12;4.00;;;3.63;;
11691;SDS011;33659;42.672;23.354;2022-09-12T09:31:45;4.10;;;3.70;;
11691;SDS011;33659;42.672;23.354;2022-09-12T09:34:17;3.70;;;3.38;;
11691;SDS011;33659;42.672;23.354;2022-09-12T09:36:48;6.13;;;3.90;;
11691;SDS011;33659;42.672;23.354;2022-09-12T09:39:19;4.03;;;3.65;;
11691;SDS011;33659;42.672;23.354;2022-09-12T09:42:02;3.70;;;3.40;;
11691;SDS011;33659;42.672;23.354;2022-09-12T09:44:42;3.85;;;3.55;;
11691;SDS011;33659;42.672;23.354;2022-09-12T09:47:12;3.78;;;3.47;;
11691;SDS011;33659;42.672;23.354;2022-09-12T09:49:39;4.13;;;3.45;;
11691;SDS011;33659;42.672;23.354;2022-09-12T09:52:06;3.38;;;3.08;;
11691;SDS011;33659;42.672;23.354;2022-09-12T09:54:34;6.05;;;3.00;;
11691;SDS011;33659;42.672;23.354;2022-09-12T09:57:05;3.90;;;3.10;;
11691;SDS011;33659;42.672;23.354;2022-09-12T10:00:18;3.67;;;3.38;;
11691;SDS011;33659;42.672;23.354;2022-09-12T10:05:55;3.28;;;3.03;;
11691;SDS011;33659;42.672;23.354;2022-09-12T10:08:26;4.65;;;3.22;;
11691;SDS011;33659;42.672;23.354;2022-09-12T10:10:54;3.55;;;3.25;;
11691;SDS011;33659;42.672;23.354;2022-09-12T10:13:24;3.30;;;3.00;;
11691;SDS011;33659;42.672;23.354;2022-09-12T10:15:56;3.35;;;3.05;;
11691;SDS011;33659;42.672;23.354;2022-09-12T10:18:38;3.22;;;2.97;;
11691;SDS011;33659;42.672;23.354;2022-09-12T10:23:57;3.25;;;2.95;;
11691;SDS011;33659;42.672;23.354;2022-09-12T10:26:30;3.50;;;3.20;;
11691;SDS011;33659;42.672;23.354;2022-09-12T10:29:02;3.83;;;3.53;;
11691;SDS011;33659;42.672;23.354;2022-09-12T10:31:41;3.80;;;3.50;;
11691;SDS011;33659;42.672;23.354;2022-09-12T10:34:18;4.32;;;3.42;;
11691;SDS011;33659;42.672;23.354;2022-09-12T10:36:50;4.43;;;4.03;;
11691;SDS011;33659;42.672;23.354;2022-09-12T10:39:18;4.50;;;3.88;;
11691;SDS011;33659;42.672;23.354;2022-09-12T10:41:45;4.88;;;4.40;;
11691;SDS011;33659;42.672;23.354;2022-09-12T10:44:13;6.15;;;3.78;;
11691;SDS011;33659;42.672;23.354;2022-09-12T10:46:42;4.03;;;3.63;;
11691;SDS011;33659;42.672;23.354;2022-09-12T10:49:25;3.85;;;3.22;;
11691;SDS011;33659;42.672;23.354;2022-09-12T10:51:55;4.05;;;3.22;;
11691;SDS011;33659;42.672;23.354;2022-09-12T10:54:25;3.35;;;3.10;;
11691;SDS011;33659;42.672;23.354;2022-09-12T11:00:02;3.60;;;3.30;;
11691;SDS011;33659;42.672;23.354;2022-09-12T11:02:39;3.47;;;3.17;;
11691;SDS011;33659;42.672;23.354;2022-09-12T11:05:31;3.53;;;3.22;;
11691;SDS011;33659;42.672;23.354;2022-09-12T11:08:10;3.42;;;3.13;;
11691;SDS011;33659;42.672;23.354;2022-09-12T11:10:47;3.88;;;3.58;;
11691;SDS011;33659;42.672;23.354;2022-09-12T11:13:25;4.30;;;3.90;;
11691;SDS011;33659;42.672;23.354;2022-09-12T11:16:15;4.63;;;4.22;;
11691;SDS011;33659;42.672;23.354;2022-09-12T11:18:56;3.53;;;3.22;;
11691;SDS011;33659;42.672;23.354;2022-09-12T11:21:39;4.10;;;3.80;;
11691;SDS011;33659;42.672;23.354;2022-09-12T11:24:26;5.82;;;3.40;;
11691;SDS011;33659;42.672;23.354;2022-09-12T11:27:18;3.78;;;3.47;;
11691;SDS011;33659;42.672;23.354;2022-09-12T11:29:58;4.32;;;3.92;;
11691;SDS011;33659;42.672;23.354;2022-09-12T11:32:50;4.00;;;3.22;;
11691;SDS011;33659;42.672;23.354;2022-09-12T11:35:29;4.70;;;4.13;;
11691;SDS011;33659;42.672;23.354;2022-09-12T11:41:01;4.50;;;3.83;;
11691;SDS011;33659;42.672;23.354;2022-09-12T11:43:34;4.28;;;3.97;;
11691;SDS011;33659;42.672;23.354;2022-09-12T11:46:05;4.50;;;4.05;;
11691;SDS011;33659;42.672;23.354;2022-09-12T11:48:39;3.80;;;3.40;;
11691;SDS011;33659;42.672;23.354;2022-09-12T11:51:16;3.75;;;3.45;;
11691;SDS011;33659;42.672;23.354;2022-09-12T11:53:46;4.18;;;3.88;;
11691;SDS011;33659;42.672;23.354;2022-09-12T11:56:21;3.67;;;3.30;;
11691;SDS011;33659;42.672;23.354;2022-09-12T11:58:49;4.57;;;4.18;;
11691;SDS011;33659;42.672;23.354;2022-09-12T12:01:24;3.67;;;3.38;;
11691;SDS011;33659;42.672;23.354;2022-09-12T12:03:53;4.45;;;4.05;;
11691;SDS011;33659;42.672;23.354;2022-09-12T12:06:23;5.07;;;4.68;;
11691;SDS011;33659;42.672;23.354;2022-09-12T12:08:55;3.80;;;3.47;;
11691;SDS011;33659;42.672;23.354;2022-09-12T12:11:28;3.10;;;2.90;;
11691;SDS011;33659;42.672;23.354;2022-09-12T12:13:59;3.30;;;3.00;;
11691;SDS011;33659;42.672;23.354;2022-09-12T12:16:30;3.42;;;3.13;;
11691;SDS011;33659;42.672;23.354;2022-09-12T12:18:59;3.28;;;3.03;;
11691;SDS011;33659;42.672;23.354;2022-09-12T12:21:31;3.58;;;3.30;;
11691;SDS011;33659;42.672;23.354;2022-09-12T12:24:14;2.65;;;2.45;;
11691;SDS011;33659;42.672;23.354;2022-09-12T12:26:54;2.33;;;2.22;;
11691;SDS011;33659;42.672;23.354;2022-09-12T12:29:39;1.70;;;1.60;;
11691;SDS011;33659;42.672;23.354;2022-09-12T12:32:21;1.88;;;1.75;;
11691;SDS011;33659;42.672;23.354;2022-09-12T12:34:49;5.00;;;2.10;;
11691;SDS011;33659;42.672;23.354;2022-09-12T12:37:47;2.25;;;2.15;;
11691;SDS011;33659;42.672;23.354;2022-09-12T12:40:25;2.80;;;2.15;;
11691;SDS011;33659;42.672;23.354;2022-09-12T12:43:13;2.50;;;2.30;;
11691;SDS011;33659;42.672;23.354;2022-09-12T12:46:01;2.53;;;2.33;;
11691;SDS011;33659;42.672;23.354;2022-09-12T12:48:42;2.60;;;2.40;;
11691;SDS011;33659;42.672;23.354;2022-09-12T12:51:32;2.88;;;2.67;;
11691;SDS011;33659;42.672;23.354;2022-09-12T12:54:02;2.80;;;2.60;;
11691;SDS011;33659;42.672;23.354;2022-09-12T12:56:36;2.70;;;2.50;;
11691;SDS011;33659;42.672;23.354;2022-09-12T12:59:13;2.72;;;2.53;;
11691;SDS011;33659;42.672;23.354;2022-09-12T13:01:46;2.60;;;2.40;;
11691;SDS011;33659;42.672;23.354;2022-09-12T13:04:16;2.67;;;2.45;;
11691;SDS011;33659;42.672;23.354;2022-09-12T13:06:45;3.22;;;2.70;;
11691;SDS011;33659;42.672;23.354;2022-09-12T13:09:21;2.60;;;2.40;;
11691;SDS011;33659;42.672;23.354;2022-09-12T13:11:56;3.10;;;2.90;;
11691;SDS011;33659;42.672;23.354;2022-09-12T13:14:47;3.35;;;2.75;;
11691;SDS011;33659;42.672;23.354;2022-09-12T13:17:17;3.25;;;2.90;;
11691;SDS011;33659;42.672;23.354;2022-09-12T13:19:51;2.90;;;2.70;;
11691;SDS011;33659;42.672;23.354;2022-09-12T13:22:36;3.00;;;2.80;;
11691;SDS011;33659;42.672;23.354;2022-09-12T13:25:15;3.13;;;2.90;;
11691;SDS011;33659;42.672;23.354;2022-09-12T13:27:55;3.55;;;3.28;;
11691;SDS011;33659;42.672;23.354;2022-09-12T13:30:27;3.40;;;3.10;;
11691;SDS011;33659;42.672;23.354;2022-09-12T13:32:56;3.60;;;3.22;;
11691;SDS011;33659;42.672;23.354;2022-09-12T13:35:30;3.47;;;3.17;;
11691;SDS011;33659;42.672;23.354;2022-09-12T13:38:07;3.28;;;2.88;;
11691;SDS011;33659;42.672;23.354;2022-09-12T13:40:40;3.45;;;3.15;;
11691;SDS011;33659;42.672;23.354;2022-09-12T13:43:22;2.95;;;2.72;;
11691;SDS011;33659;42.672;23.354;2022-09-12T13:45:56;3.00;;;2.80;;
11691;SDS011;33659;42.672;23.354;2022-09-12T13:48:23;3.10;;;2.90;;
11691;SDS011;33659;42.672;23.354;2022-09-12T13:50:52;3.47;;;2.78;;
11691;SDS011;33659;42.672;23.354;2022-09-12T13:53:22;3.47;;;3.17;;
11691;SDS011;33659;42.672;23.354;2022-09-12T13:55:51;2.95;;;2.75;;
11691;SDS011;33659;42.672;23.354;2022-09-12T13:58:22;3.38;;;3.08;;
11691;SDS011;33659;42.672;23.354;2022-09-12T14:01:01;4.00;;;3.70;;
11691;SDS011;33659;42.672;23.354;2022-09-12T14:03:32;5.53;;;4.10;;
11691;SDS011;33659;42.672;23.354;2022-09-12T14:06:17;3.97;;;3.60;;
11691;SDS011;33659;42.672;23.354;2022-09-12T14:08:44;4.07;;;3.67;;
11691;SDS011;33659;42.672;23.354;2022-09-12T14:11:16;3.90;;;3.60;;
11691;SDS011;33659;42.672;23.354;2022-09-12T14:13:50;3.83;;;3.53;;
11691;SDS011;33659;42.672;23.354;2022-09-12T14:16:18;3.53;;;3.20;;
11691;SDS011;33659;42.672;23.354;2022-09-12T14:18:47;3.60;;;3.30;;
11691;SDS011;33659;42.672;23.354;2022-09-12T14:21:19;3.72;;;3.40;;
11691;SDS011;33659;42.672;23.354;2022-09-12T14:23:55;3.55;;;3.25;;
11691;SDS011;33659;42.672;23.354;2022-09-12T14:26:22;3.35;;;3.05;;
11691;SDS011;33659;42.672;23.354;2022-09-12T14:28:52;3.33;;;3.10;;
11691;SDS011;33659;42.672;23.354;2022-09-12T14:31:22;4.88;;;3.60;;
11691;SDS011;33659;42.672;23.354;2022-09-12T14:33:54;3.50;;;3.20;;
11691;SDS011;33659;42.672;23.354;2022-09-12T14:36:22;5.03;;;3.67;;
11691;SDS011;33659;42.672;23.354;2022-09-12T14:38:52;3.45;;;3.17;;
11691;SDS011;33659;42.672;23.354;2022-09-12T14:41:23;3.13;;;2.90;;
11691;SDS011;33659;42.672;23.354;2022-09-12T14:43:54;3.30;;;3.10;;
11691;SDS011;33659;42.672;23.354;2022-09-12T14:46:25;7.97;;;3.40;;
11691;SDS011;33659;42.672;23.354;2022-09-12T14:48:56;3.70;;;3.40;;
11691;SDS011;33659;42.672;23.354;2022-09-12T14:51:26;3.70;;;3.40;;
11691;SDS011;33659;42.672;23.354;2022-09-12T14:53:56;3.88;;;3.58;;
11691;SDS011;33659;42.672;23.354;2022-09-12T14:56:36;3.40;;;3.20;;
11691;SDS011;33659;42.672;23.354;2022-09-12T14:59:22;3.55;;;3.30;;
11691;SDS011;33659;42.672;23.354;2022-09-12T15:04:52;3.60;;;3.30;;
11691;SDS011;33659;42.672;23.354;2022-09-12T15:07:21;3.67;;;3.38;;
11691;SDS011;33659;42.672;23.354;2022-09-12T15:09:55;3.35;;;3.00;;
11691;SDS011;33659;42.672;23.354;2022-09-12T15:12:24;4.63;;;3.90;;
11691;SDS011;33659;42.672;23.354;2022-09-12T15:14:50;3.92;;;3.63;;
11691;SDS011;33659;42.672;23.354;2022-09-12T15:17:17;4.03;;;3.63;;
11691;SDS011;33659;42.672;23.354;2022-09-12T15:19:45;3.88;;;3.58;;
11691;SDS011;33659;42.672;23.354;2022-09-12T15:22:12;3.65;;;3.22;;